Abalone 2 — FAE3065 — position and weather

sailwx.info

Track history (hours):
 
Tides and Currents Weather Stations Pressure Air Temp Water Temp Dewpoint Dewpoint Depression Visibility Wind Speed Wind Dir Waves Ship Positions

Abalone 2

Last reported at 2017-Nov-19 21:30 UTC. Time now 2017-Nov-19 21:54 UTC.
Position N 17°00' W 061°46'.

Type: Sailing vessel. MMSI: 227463080.

Date/timePositionNaut miles runAvg speedWind from/ knotsBaromVisibWave heightAir tempDewpointWater temp
2017-Nov-19 21:30N 17°00' W 061°46'0 0.0
2017-Nov-19 21:00N 17°00' W 061°46'0 0.0
2017-Nov-19 20:30N 17°00' W 061°46'0 0.0
2017-Nov-19 20:00N 17°00' W 061°46'0 0.0
2017-Nov-19 19:30N 17°00' W 061°46'0 0.0
2017-Nov-19 19:00N 17°00' W 061°46'0 0.0
2017-Nov-19 18:30N 17°00' W 061°46'0 0.0
2017-Nov-19 18:00N 17°00' W 061°46'0 0.0
2017-Nov-19 17:30N 17°00' W 061°46'0 0.0
2017-Nov-19 17:00N 17°00' W 061°46'0 0.0
2017-Nov-19 16:30N 17°00' W 061°46'0 0.0
2017-Nov-19 16:00N 17°00' W 061°46'0 0.0
2017-Nov-19 15:30N 17°00' W 061°46'0 0.0
2017-Nov-19 15:00N 17°00' W 061°46'0 0.0
2017-Nov-19 14:30N 17°00' W 061°46'0 0.0
2017-Nov-19 14:00N 17°00' W 061°46'0 0.5
2017-Nov-19 13:30N 17°00' W 061°46'0 0.0
2017-Nov-19 12:57N 17°00' W 061°46'0 0.0
2017-Nov-19 12:30N 17°00' W 061°46'0 0.0
2017-Nov-19 12:00N 17°00' W 061°46'0 0.0
2017-Nov-19 11:30N 17°00' W 061°46'0 0.0
2017-Nov-19 11:00N 17°00' W 061°46'0 0.0
2017-Nov-19 10:30N 17°00' W 061°46'0 0.0
2017-Nov-19 10:00N 17°00' W 061°46'0 0.0
2017-Nov-19 09:30N 17°00' W 061°46'0 0.0
2017-Nov-19 08:57N 17°00' W 061°46'0 0.0
2017-Nov-19 08:30N 17°00' W 061°46'0 0.0
2017-Nov-19 08:00N 17°00' W 061°46'0 0.0
2017-Nov-19 07:30N 17°00' W 061°46'0 0.0
2017-Nov-19 07:00N 17°00' W 061°46'0 0.0
2017-Nov-19 06:30N 17°00' W 061°46'0 0.0
2017-Nov-19 06:00N 17°00' W 061°46'0 0.0
2017-Nov-19 05:30N 17°00' W 061°46'0 0.0
2017-Nov-19 05:00N 17°00' W 061°46'0 0.0
2017-Nov-19 04:30N 17°00' W 061°46'0 0.0
2017-Nov-19 04:00N 17°00' W 061°46'0 0.0
2017-Nov-19 03:30N 17°00' W 061°46'0 0.0
2017-Nov-19 03:00N 17°00' W 061°46'0 0.0
2017-Nov-19 02:30N 17°00' W 061°46'0 0.0
2017-Nov-19 02:00N 17°00' W 061°46'0 0.0
2017-Nov-19 01:30N 17°00' W 061°46'0 0.0
2017-Nov-19 01:00N 17°00' W 061°46'0 0.0
2017-Nov-19 00:30N 17°00' W 061°46'0 0.0
2017-Nov-19 00:00N 17°00' W 061°46'0 0.0
2017-Nov-18 23:30N 17°00' W 061°46'0 0.0
2017-Nov-18 23:00N 17°00' W 061°46'0 0.0
2017-Nov-18 22:30N 17°00' W 061°46'0 0.0
2017-Nov-18 22:00N 17°00' W 061°46'0 0.0
2017-Nov-18 21:30N 17°00' W 061°46'0 0.0
2017-Nov-18 20:57N 17°00' W 061°46'0 0.0
2017-Nov-18 20:30N 17°00' W 061°46'0 0.3
2017-Nov-18 20:00N 17°00' W 061°46'2 3.0
2017-Nov-18 19:28N 17°01' W 061°44'1 1.5
2017-Nov-18 18:59N 17°00' W 061°44'8 0.3
2017-Nov-17 18:43N 17°07' W 061°39'1 3.4
2017-Nov-17 18:27N 17°06' W 061°40'1 0.9
2017-Nov-17 17:24N 17°07' W 061°40'3 2.0
2017-Nov-17 16:03N 17°10' W 061°40'0 2.0
2017-Nov-17 16:00N 17°10' W 061°41'2 3.0
2017-Nov-17 15:28N 17°09' W 061°42'2 3.5
2017-Nov-17 15:00N 17°10' W 061°44'1 0.7
2017-Nov-17 13:00N 17°08' W 061°44'0 0.0
2017-Nov-16 20:33N 17°08' W 061°44'0 0.0
2017-Nov-16 19:24N 17°08' W 061°44'0 0.0
2017-Nov-16 18:54N 17°08' W 061°44'0 0.0
2017-Nov-16 18:15N 17°08' W 061°44'0 0.0
2017-Nov-16 16:57N 17°08' W 061°44'0 0.0
2017-Nov-15 18:03N 17°09' W 061°44'0 1.9
2017-Nov-15 17:58N 17°09' W 061°44'2 0.9
2017-Nov-15 15:28N 17°09' W 061°46'3 4.8
2017-Nov-15 14:56N 17°11' W 061°48'4 6.3
2017-Nov-15 14:22N 17°10' W 061°51'  
2017-Nov-11 22:00N 17°00' W 061°46'0 0.0
2017-Nov-11 21:30N 17°00' W 061°46'0 0.0
2017-Nov-11 20:57N 17°00' W 061°46'0 0.0
2017-Nov-11 20:30N 17°00' W 061°46'0 0.0
2017-Nov-11 20:00N 17°00' W 061°46'0 0.0
2017-Nov-11 19:30N 17°00' W 061°46'0 0.0
2017-Nov-11 19:00N 17°00' W 061°46'0 0.0
2017-Nov-11 18:30N 17°00' W 061°46'0 0.0
2017-Nov-11 18:00N 17°00' W 061°46'0 0.0
2017-Nov-11 17:30N 17°00' W 061°46'0 0.0
2017-Nov-11 16:57N 17°00' W 061°46'0 0.0
2017-Nov-11 16:24N 17°00' W 061°46'0 0.0
2017-Nov-11 16:00N 17°00' W 061°46'0 0.0
2017-Nov-11 15:27N 17°00' W 061°46'0 0.0
2017-Nov-11 15:00N 17°00' W 061°46'0 0.0
2017-Nov-11 14:30N 17°00' W 061°46'0 0.0
2017-Nov-11 14:00N 17°00' W 061°46'0 0.0
2017-Nov-11 13:30N 17°00' W 061°46'0 0.1
2017-Nov-11 13:00N 17°00' W 061°46'2 3.7
2017-Nov-11 12:27N 17°00' W 061°44'1 0.1
2017-Nov-10 15:59N 17°01' W 061°43'2 3.5
2017-Nov-10 15:29N 16°60' W 061°44'2 5.1
2017-Nov-10 15:00N 16°60' W 061°46'1 1.8
2017-Nov-10 14:29N 17°01' W 061°47'0 0.0
2017-Nov-10 13:59N 17°01' W 061°47'0 0.0
2017-Nov-10 13:29N 17°01' W 061°47'0 0.0
2017-Nov-10 12:59N 17°01' W 061°47'0 0.0
2017-Nov-10 12:29N 17°01' W 061°47'0 0.0
2017-Nov-10 11:59N 17°01' W 061°47'0 0.0
2017-Nov-10 11:29N 17°01' W 061°47'0 0.0
2017-Nov-10 10:59N 17°01' W 061°47'0 0.0
2017-Nov-10 10:23N 17°01' W 061°47'0 0.0
2017-Nov-10 09:59N 17°01' W 061°47'0 0.0
2017-Nov-10 09:29N 17°01' W 061°47'0 0.0
2017-Nov-10 08:59N 17°01' W 061°47'0 0.0
2017-Nov-10 08:29N 17°01' W 061°47'0 0.0
2017-Nov-10 07:59N 17°01' W 061°47'0 0.0
2017-Nov-10 07:29N 17°01' W 061°47'0 0.0
2017-Nov-10 06:59N 17°01' W 061°47'0 0.0
2017-Nov-10 06:29N 17°01' W 061°47'0 0.0
2017-Nov-10 05:59N 17°01' W 061°47'0 0.0
2017-Nov-10 05:29N 17°01' W 061°47'0 0.0
2017-Nov-10 04:59N 17°01' W 061°47'0 0.0
2017-Nov-10 04:29N 17°01' W 061°47'0 0.0
2017-Nov-10 03:59N 17°01' W 061°47'0 0.0
2017-Nov-10 03:29N 17°01' W 061°47'0 0.0
2017-Nov-10 02:59N 17°01' W 061°47'0 0.0
2017-Nov-10 02:29N 17°01' W 061°47'0 0.0
2017-Nov-10 01:59N 17°01' W 061°47'0 0.0
2017-Nov-10 01:29N 17°01' W 061°47'0 0.0
2017-Nov-10 00:59N 17°01' W 061°47'0 0.0
2017-Nov-10 00:29N 17°01' W 061°47'0 0.0
2017-Nov-09 23:59N 17°01' W 061°47'0 0.0
2017-Nov-09 23:29N 17°01' W 061°47'0 0.0
2017-Nov-09 22:59N 17°01' W 061°47'0 0.0
2017-Nov-09 22:29N 17°01' W 061°47'0 0.0
2017-Nov-09 21:59N 17°01' W 061°47'  
Track history (hours):
 
Tides and Currents Weather Stations Pressure Air Temp Water Temp Dewpoint Dewpoint Depression Visibility Wind Speed Wind Dir Waves Ship Positions

Abalone 2

Last reported at 2017-Nov-19 21:30 UTC. Time now 2017-Nov-19 21:54 UTC.
Position N 17°00' W 061°46'.

Type: Sailing vessel. MMSI: 227463080.

Date/timePositionNaut miles runAvg speedWind from/ knotsBaromVisibWave heightAir tempDewpointWater temp
2017-Nov-19 21:30N 17°00' W 061°46'0 0.0
2017-Nov-19 21:00N 17°00' W 061°46'0 0.0
2017-Nov-19 20:30N 17°00' W 061°46'0 0.0
2017-Nov-19 20:00N 17°00' W 061°46'0 0.0
2017-Nov-19 19:30N 17°00' W 061°46'0 0.0
2017-Nov-19 19:00N 17°00' W 061°46'0 0.0
2017-Nov-19 18:30N 17°00' W 061°46'0 0.0
2017-Nov-19 18:00N 17°00' W 061°46'0 0.0
2017-Nov-19 17:30N 17°00' W 061°46'0 0.0
2017-Nov-19 17:00N 17°00' W 061°46'0 0.0
2017-Nov-19 16:30N 17°00' W 061°46'0 0.0
2017-Nov-19 16:00N 17°00' W 061°46'0 0.0
2017-Nov-19 15:30N 17°00' W 061°46'0 0.0
2017-Nov-19 15:00N 17°00' W 061°46'0 0.0
2017-Nov-19 14:30N 17°00' W 061°46'0 0.0
2017-Nov-19 14:00N 17°00' W 061°46'0 0.5
2017-Nov-19 13:30N 17°00' W 061°46'0 0.0
2017-Nov-19 12:57N 17°00' W 061°46'0 0.0
2017-Nov-19 12:30N 17°00' W 061°46'0 0.0
2017-Nov-19 12:00N 17°00' W 061°46'0 0.0
2017-Nov-19 11:30N 17°00' W 061°46'0 0.0
2017-Nov-19 11:00N 17°00' W 061°46'0 0.0
2017-Nov-19 10:30N 17°00' W 061°46'0 0.0
2017-Nov-19 10:00N 17°00' W 061°46'0 0.0
2017-Nov-19 09:30N 17°00' W 061°46'0 0.0
2017-Nov-19 08:57N 17°00' W 061°46'0 0.0
2017-Nov-19 08:30N 17°00' W 061°46'0 0.0
2017-Nov-19 08:00N 17°00' W 061°46'0 0.0
2017-Nov-19 07:30N 17°00' W 061°46'0 0.0
2017-Nov-19 07:00N 17°00' W 061°46'0 0.0
2017-Nov-19 06:30N 17°00' W 061°46'0 0.0
2017-Nov-19 06:00N 17°00' W 061°46'0 0.0
2017-Nov-19 05:30N 17°00' W 061°46'0 0.0
2017-Nov-19 05:00N 17°00' W 061°46'0 0.0
2017-Nov-19 04:30N 17°00' W 061°46'0 0.0
2017-Nov-19 04:00N 17°00' W 061°46'0 0.0
2017-Nov-19 03:30N 17°00' W 061°46'0 0.0
2017-Nov-19 03:00N 17°00' W 061°46'0 0.0
2017-Nov-19 02:30N 17°00' W 061°46'0 0.0
2017-Nov-19 02:00N 17°00' W 061°46'0 0.0
2017-Nov-19 01:30N 17°00' W 061°46'0 0.0
2017-Nov-19 01:00N 17°00' W 061°46'0 0.0
2017-Nov-19 00:30N 17°00' W 061°46'0 0.0
2017-Nov-19 00:00N 17°00' W 061°46'0 0.0
2017-Nov-18 23:30N 17°00' W 061°46'0 0.0
2017-Nov-18 23:00N 17°00' W 061°46'0 0.0
2017-Nov-18 22:30N 17°00' W 061°46'0 0.0
2017-Nov-18 22:00N 17°00' W 061°46'0 0.0
2017-Nov-18 21:30N 17°00' W 061°46'0 0.0
2017-Nov-18 20:57N 17°00' W 061°46'0 0.0
2017-Nov-18 20:30N 17°00' W 061°46'0 0.3
2017-Nov-18 20:00N 17°00' W 061°46'2 3.0
2017-Nov-18 19:28N 17°01' W 061°44'1 1.5
2017-Nov-18 18:59N 17°00' W 061°44'8 0.3
2017-Nov-17 18:43N 17°07' W 061°39'1 3.4
2017-Nov-17 18:27N 17°06' W 061°40'1 0.9
2017-Nov-17 17:24N 17°07' W 061°40'3 2.0
2017-Nov-17 16:03N 17°10' W 061°40'0 2.0
2017-Nov-17 16:00N 17°10' W 061°41'2 3.0
2017-Nov-17 15:28N 17°09' W 061°42'2 3.5
2017-Nov-17 15:00N 17°10' W 061°44'1 0.7
2017-Nov-17 13:00N 17°08' W 061°44'0 0.0
2017-Nov-16 20:33N 17°08' W 061°44'0 0.0
2017-Nov-16 19:24N 17°08' W 061°44'0 0.0
2017-Nov-16 18:54N 17°08' W 061°44'0 0.0
2017-Nov-16 18:15N 17°08' W 061°44'0 0.0
2017-Nov-16 16:57N 17°08' W 061°44'0 0.0
2017-Nov-15 18:03N 17°09' W 061°44'0 1.9
2017-Nov-15 17:58N 17°09' W 061°44'2 0.9
2017-Nov-15 15:28N 17°09' W 061°46'3 4.8
2017-Nov-15 14:56N 17°11' W 061°48'4 6.3
2017-Nov-15 14:22N 17°10' W 061°51'  
2017-Nov-11 22:00N 17°00' W 061°46'0 0.0
2017-Nov-11 21:30N 17°00' W 061°46'0 0.0
2017-Nov-11 20:57N 17°00' W 061°46'0 0.0
2017-Nov-11 20:30N 17°00' W 061°46'0 0.0
2017-Nov-11 20:00N 17°00' W 061°46'0 0.0
2017-Nov-11 19:30N 17°00' W 061°46'0 0.0
2017-Nov-11 19:00N 17°00' W 061°46'0 0.0
2017-Nov-11 18:30N 17°00' W 061°46'0 0.0
2017-Nov-11 18:00N 17°00' W 061°46'0 0.0
2017-Nov-11 17:30N 17°00' W 061°46'0 0.0
2017-Nov-11 16:57N 17°00' W 061°46'0 0.0
2017-Nov-11 16:24N 17°00' W 061°46'0 0.0
2017-Nov-11 16:00N 17°00' W 061°46'0 0.0
2017-Nov-11 15:27N 17°00' W 061°46'0 0.0
2017-Nov-11 15:00N 17°00' W 061°46'0 0.0
2017-Nov-11 14:30N 17°00' W 061°46'0 0.0
2017-Nov-11 14:00N 17°00' W 061°46'0 0.0
2017-Nov-11 13:30N 17°00' W 061°46'0 0.1
2017-Nov-11 13:00N 17°00' W 061°46'2 3.7
2017-Nov-11 12:27N 17°00' W 061°44'1 0.1
2017-Nov-10 15:59N 17°01' W 061°43'2 3.5
2017-Nov-10 15:29N 16°60' W 061°44'2 5.1
2017-Nov-10 15:00N 16°60' W 061°46'1 1.8
2017-Nov-10 14:29N 17°01' W 061°47'0 0.0
2017-Nov-10 13:59N 17°01' W 061°47'0 0.0
2017-Nov-10 13:29N 17°01' W 061°47'0 0.0
2017-Nov-10 12:59N 17°01' W 061°47'0 0.0
2017-Nov-10 12:29N 17°01' W 061°47'0 0.0
2017-Nov-10 11:59N 17°01' W 061°47'0 0.0
2017-Nov-10 11:29N 17°01' W 061°47'0 0.0
2017-Nov-10 10:59N 17°01' W 061°47'0 0.0
2017-Nov-10 10:23N 17°01' W 061°47'0 0.0
2017-Nov-10 09:59N 17°01' W 061°47'0 0.0
2017-Nov-10 09:29N 17°01' W 061°47'0 0.0
2017-Nov-10 08:59N 17°01' W 061°47'0 0.0
2017-Nov-10 08:29N 17°01' W 061°47'0 0.0
2017-Nov-10 07:59N 17°01' W 061°47'0 0.0
2017-Nov-10 07:29N 17°01' W 061°47'0 0.0
2017-Nov-10 06:59N 17°01' W 061°47'0 0.0
2017-Nov-10 06:29N 17°01' W 061°47'0 0.0
2017-Nov-10 05:59N 17°01' W 061°47'0 0.0
2017-Nov-10 05:29N 17°01' W 061°47'0 0.0
2017-Nov-10 04:59N 17°01' W 061°47'0 0.0
2017-Nov-10 04:29N 17°01' W 061°47'0 0.0
2017-Nov-10 03:59N 17°01' W 061°47'0 0.0
2017-Nov-10 03:29N 17°01' W 061°47'0 0.0
2017-Nov-10 02:59N 17°01' W 061°47'0 0.0
2017-Nov-10 02:29N 17°01' W 061°47'0 0.0
2017-Nov-10 01:59N 17°01' W 061°47'0 0.0
2017-Nov-10 01:29N 17°01' W 061°47'0 0.0
2017-Nov-10 00:59N 17°01' W 061°47'0 0.0
2017-Nov-10 00:29N 17°01' W 061°47'0 0.0
2017-Nov-09 23:59N 17°01' W 061°47'0 0.0
2017-Nov-09 23:29N 17°01' W 061°47'0 0.0
2017-Nov-09 22:59N 17°01' W 061°47'0 0.0
2017-Nov-09 22:29N 17°01' W 061°47'0 0.0
2017-Nov-09 21:59N 17°01' W 061°47'  

Dump ship's entire track history